Time;durP1;ratioP1;P1;durP2;ratioP2;P2;SDS_P1;SDS_P2;PMS_P1;PMS_P2;Temp;Humidity;BMP_temperature;BMP_pressure;BME280_temperature;BME280_humidity;BME280_pressure;Samples;Min_cycle;Max_cycle;Signal;HPM_P1;HPM_P2
2021/10/13 00:02:21;;;;;;;0.75;0.30;;;8.90;99.90;;;;;;4993168;28;20046;-71
2021/10/13 00:04:48;;;;;;;0.22;0.17;;;8.90;99.90;;;;;;4993354;28;20072;-70
2021/10/13 00:07:15;;;;;;;0.40;0.20;;;8.90;99.90;;;;;;5006224;28;20738;-67
2021/10/13 00:09:42;;;;;;;0.85;0.17;;;8.90;99.90;;;;;;5005559;28;20115;-67
2021/10/13 00:12:09;;;;;;;0.65;0.00;;;8.90;99.90;;;;;;4995852;28;20065;-69
2021/10/13 00:14:36;;;;;;;0.93;0.10;;;8.90;99.90;;;;;;5003293;28;20633;-67
2021/10/13 00:17:04;;;;;;;1.02;0.20;;;8.90;99.90;;;;;;5003269;28;20560;-73
2021/10/13 00:19:31;;;;;;;0.20;0.20;;;8.90;99.90;;;;;;4988589;28;20495;-67
2021/10/13 00:21:58;;;;;;;0.10;0.10;;;8.90;99.90;;;;;;4993115;28;20058;-67
2021/10/13 00:24:25;;;;;;;0.20;0.10;;;8.90;99.90;;;;;;5006874;28;20109;-69
2021/10/13 00:26:52;;;;;;;0.40;0.30;;;8.90;99.90;;;;;;5000980;28;20135;-70
2021/10/13 00:29:20;;;;;;;1.40;0.10;;;8.90;99.90;;;;;;5005445;28;20072;-72
2021/10/13 00:31:47;;;;;;;1.35;0.40;;;8.80;99.90;;;;;;4987321;28;20581;-70
2021/10/13 00:34:15;;;;;;;0.75;0.30;;;8.80;99.90;;;;;;4999867;28;20450;-70
2021/10/13 00:36:43;;;;;;;1.85;0.20;;;8.80;99.90;;;;;;4997309;28;20517;-68
2021/10/13 00:39:10;;;;;;;1.65;0.30;;;8.80;99.90;;;;;;5004825;28;20119;-67
2021/10/13 00:41:38;;;;;;;1.30;0.30;;;8.80;99.90;;;;;;5006127;28;20037;-69
2021/10/13 00:44:05;;;;;;;1.98;0.32;;;8.70;99.90;;;;;;4984514;28;20120;-67
2021/10/13 00:46:31;;;;;;;0.73;0.13;;;8.70;99.90;;;;;;4992134;28;20416;-67
2021/10/13 00:49:01;;;;;;;0.10;0.10;;;8.70;99.90;;;;;;4999698;28;20470;-69
2021/10/13 00:51:30;;;;;;;0.35;0.25;;;8.70;99.90;;;;;;5004951;28;20416;-72
2021/10/13 00:53:57;;;;;;;0.38;0.20;;;8.60;99.90;;;;;;5004320;28;20042;-67
2021/10/13 00:56:25;;;;;;;0.45;0.10;;;8.60;99.90;;;;;;4990312;28;20501;-69
2021/10/13 00:58:53;;;;;;;0.68;0.47;;;8.60;99.90;;;;;;5004160;28;20499;-71
2021/10/13 01:01:26;;;;;;;1.55;0.22;;;8.60;99.90;;;;;;5004950;28;20100;-67
2021/10/13 01:04:10;;;;;;;2.30;0.40;;;8.70;99.90;;;;;;5001625;28;20053;-70
2021/10/13 01:06:58;;;;;;;0.52;0.22;;;8.60;99.90;;;;;;5005369;28;20501;-67
2021/10/13 01:09:45;;;;;;;0.13;0.13;;;8.60;99.90;;;;;;4993709;28;20078;-67
2021/10/13 01:12:12;;;;;;;0.20;0.20;;;8.70;99.90;;;;;;4987952;28;20062;-70
2021/10/13 01:14:40;;;;;;;1.88;0.20;;;8.70;99.90;;;;;;5006553;28;20082;-68
2021/10/13 01:17:20;;;;;;;2.42;0.20;;;8.70;99.90;;;;;;4988201;28;20048;-70
2021/10/13 01:19:47;;;;;;;0.10;0.10;;;8.70;99.90;;;;;;4999664;28;20464;-67
2021/10/13 01:22:40;;;;;;;0.52;0.32;;;8.80;99.90;;;;;;5006440;28;20058;-67
2021/10/13 01:25:51;;;;;;;0.32;0.32;;;8.80;99.90;;;;;;4997326;28;20062;-69
2021/10/13 01:28:22;;;;;;;3.53;0.30;;;8.80;99.90;;;;;;4986335;28;20096;-68
2021/10/13 01:31:05;;;;;;;0.22;0.20;;;8.80;99.90;;;;;;5008631;28;20155;-73
2021/10/13 01:33:43;;;;;;;0.45;0.30;;;8.90;99.90;;;;;;4998739;28;20538;-67
2021/10/13 01:36:14;;;;;;;5.93;0.43;;;8.90;99.90;;;;;;5007842;28;20078;-67
2021/10/13 01:38:47;;;;;;;3.65;0.43;;;8.90;99.90;;;;;;5009381;28;20076;-67
2021/10/13 01:41:16;;;;;;;1.63;0.38;;;8.90;99.90;;;;;;5002315;28;20098;-69
2021/10/13 01:43:47;;;;;;;3.22;0.73;;;8.90;99.90;;;;;;4997830;28;20046;-69
2021/10/13 01:46:16;;;;;;;0.85;0.30;;;8.80;99.90;;;;;;5005020;28;20476;-68
2021/10/13 01:48:44;;;;;;;0.10;0.10;;;8.90;99.90;;;;;;5001633;28;20049;-69
2021/10/13 01:51:13;;;;;;;0.20;0.20;;;8.90;99.90;;;;;;5005795;28;20499;-68
2021/10/13 01:53:42;;;;;;;1.45;0.77;;;8.90;99.90;;;;;;5000592;28;20039;-69
2021/10/13 01:56:10;;;;;;;0.35;0.20;;;8.90;99.90;;;;;;4984303;28;20477;-69
2021/10/13 01:58:38;;;;;;;3.20;0.20;;;8.90;99.90;;;;;;4996189;28;20101;-69
2021/10/13 02:01:11;;;;;;;0.77;0.20;;;8.90;99.90;;;;;;5007338;28;20196;-71
2021/10/13 02:03:43;;;;;;;2.00;0.30;;;8.90;99.90;;;;;;5007824;28;20045;-73
2021/10/13 02:06:15;;;;;;;0.20;0.10;;;8.90;99.90;;;;;;4999123;28;20104;-69
2021/10/13 02:08:43;;;;;;;3.65;0.10;;;8.90;99.90;;;;;;5004781;28;20977;-70
2021/10/13 02:11:10;;;;;;;0.20;0.10;;;8.90;99.90;;;;;;5004986;28;20058;-67
2021/10/13 02:13:39;;;;;;;5.97;0.50;;;8.90;99.90;;;;;;5007893;28;20081;-67
2021/10/13 02:16:08;;;;;;;1.55;0.17;;;8.90;99.90;;;;;;4991965;28;20074;-71
2021/10/13 02:18:36;;;;;;;1.20;0.35;;;8.90;99.90;;;;;;5001162;28;20635;-68
2021/10/13 02:21:05;;;;;;;1.55;0.30;;;8.90;99.90;;;;;;5009303;28;20424;-70
2021/10/13 02:23:34;;;;;;;0.65;0.57;;;8.90;99.90;;;;;;5008715;28;20065;-74
2021/10/13 02:26:11;;;;;;;1.13;0.30;;;8.90;99.90;;;;;;4996194;28;20145;-68
2021/10/13 02:28:42;;;;;;;0.40;0.10;;;8.90;99.90;;;;;;5006182;28;20344;-71
2021/10/13 02:31:10;;;;;;;0.95;0.38;;;8.90;99.90;;;;;;5006174;28;20053;-68
2021/10/13 02:33:37;;;;;;;1.63;0.40;;;8.90;99.90;;;;;;5006717;28;20446;-67
2021/10/13 02:36:05;;;;;;;0.90;0.40;;;8.80;99.90;;;;;;5005247;28;20120;-72
2021/10/13 02:38:32;;;;;;;2.92;0.68;;;8.80;99.90;;;;;;4990711;28;20042;-67
2021/10/13 02:40:59;;;;;;;0.93;0.52;;;8.80;99.90;;;;;;5008588;28;20481;-70
2021/10/13 02:43:26;;;;;;;4.28;0.65;;;8.80;99.90;;;;;;5006659;28;20046;-70
2021/10/13 02:46:07;;;;;;;0.60;0.60;;;8.80;99.90;;;;;;5004838;28;20073;-67
2021/10/13 02:48:36;;;;;;;1.02;0.60;;;8.80;99.90;;;;;;5004962;28;20049;-66
2021/10/13 02:51:13;;;;;;;1.23;0.43;;;8.70;99.90;;;;;;4991746;28;20069;-69
2021/10/13 02:53:50;;;;;;;0.88;0.38;;;8.70;99.90;;;;;;4988837;28;20062;-70
2021/10/13 02:56:22;;;;;;;2.72;1.05;;;8.70;99.90;;;;;;5003062;28;20109;-68
2021/10/13 02:58:54;;;;;;;0.73;0.45;;;8.60;99.90;;;;;;5001644;28;20046;-68
2021/10/13 03:01:27;;;;;;;1.15;1.05;;;8.60;99.90;;;;;;4999543;28;20073;-69
2021/10/13 03:03:59;;;;;;;2.03;1.10;;;8.60;99.90;;;;;;5009163;28;20136;-69
2021/10/13 03:06:36;;;;;;;1.95;0.50;;;8.60;99.90;;;;;;5006392;28;20038;-68
2021/10/13 03:09:04;;;;;;;5.03;0.40;;;8.60;99.90;;;;;;5004127;28;20041;-67
2021/10/13 03:11:33;;;;;;;1.10;0.60;;;8.60;99.90;;;;;;5005086;28;20483;-69
2021/10/13 03:14:02;;;;;;;2.67;0.93;;;8.60;99.90;;;;;;5001617;28;20042;-68
2021/10/13 03:16:29;;;;;;;0.52;0.30;;;8.60;99.90;;;;;;4997393;28;20068;-68
2021/10/13 03:18:57;;;;;;;1.20;0.40;;;8.60;99.90;;;;;;5020930;28;20046;-69
2021/10/13 03:21:26;;;;;;;0.63;0.20;;;8.60;99.90;;;;;;4990308;28;20066;-67
2021/10/13 03:23:53;;;;;;;2.53;0.35;;;8.60;99.90;;;;;;4991488;28;20129;-70
2021/10/13 03:26:20;;;;;;;1.20;0.40;;;8.60;99.90;;;;;;4998108;28;20153;-69
2021/10/13 03:28:47;;;;;;;2.83;0.50;;;8.60;99.90;;;;;;4993158;28;20050;-67
2021/10/13 03:31:16;;;;;;;0.30;0.20;;;8.60;99.90;;;;;;5004713;28;20088;-66
2021/10/13 03:33:49;;;;;;;3.33;1.10;;;8.60;99.90;;;;;;4990313;28;20066;-67
2021/10/13 03:36:16;;;;;;;1.85;0.52;;;8.60;99.90;;;;;;4995583;28;20418;-71
2021/10/13 03:38:43;;;;;;;8.27;1.77;;;8.60;99.90;;;;;;4999541;28;20058;-70
2021/10/13 03:41:10;;;;;;;0.28;0.20;;;8.60;99.90;;;;;;5001404;28;20041;-74
2021/10/13 03:43:48;;;;;;;3.53;0.73;;;8.60;99.90;;;;;;5003080;28;20125;-73
2021/10/13 03:46:22;;;;;;;1.08;0.75;;;8.60;99.90;;;;;;4987464;28;20065;-71
2021/10/13 03:48:51;;;;;;;3.20;0.65;;;8.60;99.90;;;;;;5002547;28;20053;-70
2021/10/13 03:51:18;;;;;;;4.53;1.33;;;8.60;99.90;;;;;;4997115;28;20047;-70
2021/10/13 03:53:46;;;;;;;1.40;0.40;;;8.60;99.90;;;;;;4992364;28;20148;-69
2021/10/13 03:56:13;;;;;;;0.98;0.38;;;8.60;99.90;;;;;;4998952;28;20144;-70
2021/10/13 03:58:41;;;;;;;3.22;0.50;;;8.50;99.90;;;;;;4992277;28;20076;-67
2021/10/13 04:01:08;;;;;;;3.50;0.90;;;8.50;99.90;;;;;;4998122;28;20077;-71
2021/10/13 04:03:36;;;;;;;1.85;0.45;;;8.60;99.90;;;;;;5001662;28;20050;-68
2021/10/13 04:06:04;;;;;;;1.25;0.45;;;8.60;99.90;;;;;;5001940;28;20096;-67
2021/10/13 04:08:31;;;;;;;3.47;0.73;;;8.60;99.90;;;;;;4998553;28;20070;-71
2021/10/13 04:10:58;;;;;;;5.60;2.20;;;8.50;99.90;;;;;;5002826;28;20066;-70
2021/10/13 04:13:24;;;;;;;3.22;0.60;;;8.60;99.90;;;;;;5000339;28;20046;-69
2021/10/13 04:15:51;;;;;;;3.67;0.77;;;8.50;99.90;;;;;;5001399;28;21351;-70
2021/10/13 04:18:19;;;;;;;2.50;0.43;;;8.50;99.90;;;;;;4998137;28;20046;-68
2021/10/13 04:20:45;;;;;;;3.30;0.50;;;8.50;99.90;;;;;;5001641;28;20076;-67
2021/10/13 04:23:16;;;;;;;4.57;0.77;;;8.50;99.90;;;;;;5001236;28;20068;-71
2021/10/13 04:25:42;;;;;;;0.70;0.30;;;8.50;99.90;;;;;;4997428;28;20082;-67
2021/10/13 04:28:09;;;;;;;0.77;0.45;;;8.50;99.90;;;;;;5004115;28;20602;-70
2021/10/13 04:30:37;;;;;;;4.07;0.90;;;8.50;99.90;;;;;;5000076;28;20042;-70
2021/10/13 04:33:05;;;;;;;1.33;0.40;;;8.40;99.90;;;;;;5000405;28;20082;-67
2021/10/13 04:35:32;;;;;;;5.57;1.90;;;8.50;99.90;;;;;;5004231;28;20042;-66
2021/10/13 04:38:03;;;;;;;1.67;0.55;;;8.50;99.90;;;;;;5003937;28;20136;-73
2021/10/13 04:40:30;;;;;;;2.33;0.30;;;8.50;99.90;;;;;;5005208;28;20038;-69
2021/10/13 04:42:57;;;;;;;2.50;0.40;;;8.50;99.90;;;;;;5007439;28;20781;-70
2021/10/13 04:45:25;;;;;;;0.75;0.30;;;8.50;99.90;;;;;;5004424;28;20038;-68
2021/10/13 04:47:52;;;;;;;1.00;0.50;;;8.40;99.90;;;;;;5005522;28;20569;-67
2021/10/13 04:50:19;;;;;;;1.33;0.90;;;8.50;99.90;;;;;;5001087;28;20069;-70
2021/10/13 04:52:46;;;;;;;4.10;0.40;;;8.50;99.90;;;;;;5003125;28;20092;-68
2021/10/13 04:55:13;;;;;;;2.60;0.57;;;8.50;99.90;;;;;;5005548;28;20125;-68
2021/10/13 04:57:40;;;;;;;2.40;0.43;;;8.50;99.90;;;;;;5006451;28;20128;-67
2021/10/13 05:00:07;;;;;;;5.85;1.42;;;8.50;99.90;;;;;;5008430;28;20667;-71
2021/10/13 05:02:34;;;;;;;2.10;0.65;;;8.50;99.90;;;;;;5008942;28;20490;-66
2021/10/13 05:05:01;;;;;;;1.95;0.30;;;8.40;99.90;;;;;;5003408;28;20421;-69
2021/10/13 05:07:28;;;;;;;1.85;0.40;;;8.40;99.90;;;;;;5006736;28;20518;-70
2021/10/13 05:09:55;;;;;;;3.97;0.80;;;8.40;99.90;;;;;;5006856;28;20053;-68
2021/10/13 05:12:22;;;;;;;1.58;0.50;;;8.40;99.90;;;;;;5002684;28;20062;-68
2021/10/13 05:14:49;;;;;;;4.82;1.05;;;8.40;99.90;;;;;;5007299;28;20719;-68
2021/10/13 05:17:16;;;;;;;2.63;0.50;;;8.40;99.90;;;;;;5006871;28;20530;-66
2021/10/13 05:19:43;;;;;;;0.85;0.47;;;8.50;99.90;;;;;;5009047;28;20136;-69
2021/10/13 05:22:10;;;;;;;1.95;0.50;;;8.50;99.90;;;;;;5005488;28;20070;-71
2021/10/13 05:24:37;;;;;;;2.22;0.40;;;8.40;99.90;;;;;;5008215;28;20104;-66
2021/10/13 05:27:04;;;;;;;7.60;0.60;;;8.40;99.90;;;;;;5006007;28;20069;-72
2021/10/13 05:29:30;;;;;;;1.23;0.52;;;8.40;99.90;;;;;;5005848;28;20054;-67
2021/10/13 05:31:57;;;;;;;3.67;0.50;;;8.40;99.90;;;;;;5006928;28;20109;-70
2021/10/13 05:34:24;;;;;;;5.75;0.70;;;8.40;99.90;;;;;;5005704;28;20125;-69
2021/10/13 05:36:51;;;;;;;4.97;1.55;;;8.40;99.90;;;;;;5004204;28;20559;-68
2021/10/13 05:39:18;;;;;;;2.67;0.50;;;8.40;99.90;;;;;;5011214;28;20034;-70
2021/10/13 05:41:45;;;;;;;1.45;0.28;;;8.30;99.90;;;;;;5002323;28;20050;-67
2021/10/13 05:44:12;;;;;;;1.65;0.38;;;8.30;99.90;;;;;;5000207;28;22996;-70
2021/10/13 05:46:39;;;;;;;2.08;0.85;;;8.30;99.90;;;;;;5005748;28;20216;-69
2021/10/13 05:49:06;;;;;;;4.70;1.30;;;8.40;99.90;;;;;;4985575;28;20130;-67
2021/10/13 05:51:33;;;;;;;1.95;0.45;;;8.40;99.90;;;;;;5003525;28;20372;-69
2021/10/13 05:54:00;;;;;;;4.97;0.60;;;8.40;99.90;;;;;;5004240;28;20139;-71
2021/10/13 05:56:26;;;;;;;3.67;0.60;;;8.40;99.90;;;;;;5004149;28;20066;-69
2021/10/13 05:58:55;;;;;;;1.85;0.35;;;8.40;99.90;;;;;;5002092;28;20053;-72
2021/10/13 06:01:21;;;;;;;4.60;0.68;;;8.40;99.90;;;;;;5009976;28;20128;-69
2021/10/13 06:03:49;;;;;;;3.75;0.95;;;8.40;99.90;;;;;;5005207;28;20081;-69
2021/10/13 06:06:16;;;;;;;1.48;0.93;;;8.40;99.90;;;;;;5004202;28;20101;-70
2021/10/13 06:08:44;;;;;;;2.72;1.02;;;8.40;99.90;;;;;;5009284;28;20447;-67
2021/10/13 06:11:12;;;;;;;3.17;0.50;;;8.40;99.90;;;;;;5006468;28;20045;-66
2021/10/13 06:13:39;;;;;;;4.80;1.27;;;8.40;99.90;;;;;;5000917;28;20133;-67
2021/10/13 06:16:10;;;;;;;1.85;0.50;;;8.40;99.90;;;;;;5004417;28;20104;-68
2021/10/13 06:18:38;;;;;;;4.47;1.60;;;8.40;99.90;;;;;;5006846;28;20479;-72
2021/10/13 06:21:05;;;;;;;3.92;0.32;;;8.40;99.90;;;;;;5009107;28;20053;-69
2021/10/13 06:23:32;;;;;;;3.95;0.47;;;8.40;99.90;;;;;;5007383;28;20096;-68
2021/10/13 06:25:59;;;;;;;3.45;2.28;;;8.40;99.90;;;;;;5004478;28;20153;-67
2021/10/13 06:28:26;;;;;;;4.95;0.75;;;8.40;99.90;;;;;;5002423;28;20042;-67
2021/10/13 06:30:53;;;;;;;1.45;0.38;;;8.40;99.90;;;;;;5006466;28;20054;-69
2021/10/13 06:33:20;;;;;;;2.90;0.98;;;8.40;99.90;;;;;;5001937;28;20057;-66
2021/10/13 06:35:47;;;;;;;4.00;1.10;;;8.40;99.90;;;;;;5006353;28;20152;-69
2021/10/13 06:38:14;;;;;;;3.88;1.00;;;8.40;99.90;;;;;;5002066;28;20463;-66
2021/10/13 06:40:41;;;;;;;7.75;0.60;;;8.40;99.90;;;;;;5006633;28;20104;-68
2021/10/13 06:43:10;;;;;;;2.00;0.38;;;8.30;99.90;;;;;;4997758;28;20465;-67
2021/10/13 06:45:38;;;;;;;4.88;0.98;;;8.40;99.90;;;;;;5004504;28;20396;-70
2021/10/13 06:48:06;;;;;;;2.47;0.40;;;8.40;99.90;;;;;;5004746;28;20108;-70
2021/10/13 06:50:35;;;;;;;2.15;0.73;;;8.40;99.90;;;;;;4999933;28;20694;-66
2021/10/13 06:53:03;;;;;;;1.02;0.57;;;8.30;99.90;;;;;;5001872;28;20053;-66
2021/10/13 06:55:30;;;;;;;3.20;0.47;;;8.40;99.90;;;;;;5008662;28;20316;-68
2021/10/13 06:57:57;;;;;;;3.28;0.52;;;8.40;99.90;;;;;;5006303;28;20058;-68
2021/10/13 07:00:24;;;;;;;1.05;0.88;;;8.40;99.90;;;;;;5006428;28;20092;-67
2021/10/13 07:02:51;;;;;;;2.67;0.47;;;8.40;99.90;;;;;;5008568;28;20510;-67
2021/10/13 07:05:19;;;;;;;1.77;0.40;;;8.40;99.90;;;;;;5004531;28;20610;-68
2021/10/13 07:07:47;;;;;;;3.58;0.30;;;8.40;99.90;;;;;;5003904;28;20485;-68
2021/10/13 07:10:16;;;;;;;3.65;0.70;;;8.40;99.90;;;;;;5006075;28;20427;-68
2021/10/13 07:12:47;;;;;;;1.17;0.52;;;8.40;99.90;;;;;;5004050;28;20422;-67
2021/10/13 07:15:14;;;;;;;3.33;0.43;;;8.40;99.90;;;;;;5003082;28;20121;-66
2021/10/13 07:17:42;;;;;;;2.45;0.88;;;8.40;99.90;;;;;;5003705;28;20487;-67
2021/10/13 07:20:10;;;;;;;2.58;0.45;;;8.40;99.90;;;;;;5002873;28;20053;-71
2021/10/13 07:22:37;;;;;;;0.80;0.63;;;8.40;99.90;;;;;;5003323;28;20793;-67
2021/10/13 07:25:05;;;;;;;1.25;0.60;;;8.40;99.90;;;;;;5002917;28;20096;-71
2021/10/13 07:27:33;;;;;;;0.93;0.40;;;8.50;99.90;;;;;;5004488;28;20050;-66
2021/10/13 07:30:02;;;;;;;2.63;0.77;;;8.50;99.90;;;;;;5002238;28;20070;-70
2021/10/13 07:32:31;;;;;;;0.73;0.73;;;8.50;99.90;;;;;;5003312;28;20041;-72
2021/10/13 07:35:21;;;;;;;3.55;0.60;;;8.50;99.90;;;;;;5000511;28;20041;-70
2021/10/13 07:37:50;;;;;;;2.30;0.65;;;8.50;99.90;;;;;;5002134;28;20048;-70
2021/10/13 07:40:17;;;;;;;1.23;0.32;;;8.50;99.90;;;;;;5002249;28;20069;-67
2021/10/13 07:42:44;;;;;;;1.75;0.60;;;8.60;99.90;;;;;;5005538;28;20053;-69
2021/10/13 07:45:11;;;;;;;2.33;0.70;;;8.60;99.90;;;;;;5007975;28;20057;-69
2021/10/13 07:47:38;;;;;;;3.60;1.58;;;8.60;99.90;;;;;;5002426;28;20116;-67
2021/10/13 07:50:05;;;;;;;1.38;0.45;;;8.60;99.90;;;;;;5006121;28;20121;-67
2021/10/13 07:52:33;;;;;;;1.98;0.40;;;8.60;99.90;;;;;;5008120;28;20124;-68
2021/10/13 07:55:00;;;;;;;3.22;0.47;;;8.60;99.90;;;;;;5002210;28;20407;-68
2021/10/13 07:57:27;;;;;;;4.13;2.40;;;8.60;99.90;;;;;;5003895;28;20045;-69
2021/10/13 07:59:54;;;;;;;3.10;1.20;;;8.50;99.90;;;;;;5005142;28;20072;-70
2021/10/13 08:02:20;;;;;;;5.88;0.63;;;8.60;99.90;;;;;;4996689;28;20104;-67
2021/10/13 08:04:47;;;;;;;2.22;0.47;;;8.70;99.90;;;;;;4999151;28;20050;-67
2021/10/13 08:07:16;;;;;;;1.80;0.35;;;8.60;99.90;;;;;;5007192;28;20104;-68
2021/10/13 08:09:44;;;;;;;5.63;0.57;;;8.60;99.90;;;;;;5004302;28;20042;-66
2021/10/13 08:12:10;;;;;;;1.52;0.50;;;8.60;99.90;;;;;;5001363;28;20950;-68
2021/10/13 08:14:38;;;;;;;2.53;0.47;;;8.50;99.90;;;;;;4998014;28;20042;-66
2021/10/13 08:17:07;;;;;;;2.28;0.77;;;8.50;99.90;;;;;;5000431;28;20145;-66
2021/10/13 08:19:34;;;;;;;2.67;0.45;;;8.40;99.90;;;;;;5006565;28;20447;-67
2021/10/13 08:22:01;;;;;;;2.70;0.47;;;8.50;99.90;;;;;;5002643;28;20623;-68
2021/10/13 08:24:28;;;;;;;2.72;0.75;;;8.40;99.90;;;;;;4999507;28;20050;-69
2021/10/13 08:26:55;;;;;;;2.35;0.50;;;8.40;99.90;;;;;;5002763;28;20125;-66
2021/10/13 08:29:22;;;;;;;1.10;0.50;;;8.40;99.90;;;;;;5004696;28;20179;-68
2021/10/13 08:31:49;;;;;;;2.70;0.45;;;8.40;99.90;;;;;;5006481;28;20100;-72
2021/10/13 08:34:16;;;;;;;3.28;0.50;;;8.40;99.90;;;;;;5004798;28;20483;-68
2021/10/13 08:36:42;;;;;;;13.18;2.15;;;8.40;99.90;;;;;;4989067;28;20505;-70
2021/10/13 08:39:09;;;;;;;1.40;0.95;;;8.40;99.90;;;;;;5002824;28;20049;-66
2021/10/13 08:41:36;;;;;;;1.55;0.60;;;8.40;99.90;;;;;;5005368;28;20137;-69
2021/10/13 08:44:03;;;;;;;4.63;0.98;;;8.40;99.90;;;;;;5004519;28;20129;-68
2021/10/13 08:46:30;;;;;;;1.90;1.33;;;8.40;99.90;;;;;;5005290;28;20061;-68
2021/10/13 08:48:57;;;;;;;5.07;0.55;;;8.50;99.90;;;;;;5000175;28;20164;-67
2021/10/13 08:51:24;;;;;;;4.47;1.35;;;8.50;99.90;;;;;;5001738;28;20069;-68
2021/10/13 08:53:51;;;;;;;2.58;0.60;;;8.40;99.90;;;;;;5002991;28;20690;-68
2021/10/13 08:56:18;;;;;;;1.98;0.70;;;8.50;99.90;;;;;;4999852;28;20100;-67
2021/10/13 08:58:45;;;;;;;0.98;0.55;;;8.50;99.90;;;;;;5000382;28;20045;-75
2021/10/13 09:01:13;;;;;;;2.75;0.38;;;8.50;99.90;;;;;;4996447;28;20061;-69
2021/10/13 09:03:44;;;;;;;1.40;0.43;;;8.50;99.90;;;;;;4996709;28;20129;-70
2021/10/13 09:06:22;;;;;;;;;;;8.50;99.90;;;;;;4993440;28;20046;-69
2021/10/13 09:09:12;;;;;;;2.58;0.57;;;8.50;99.90;;;;;;5003597;28;20008;-67
2021/10/13 09:11:46;;;;;;;3.03;0.50;;;8.50;99.90;;;;;;5005800;28;20092;-69
2021/10/13 09:14:15;;;;;;;2.45;1.08;;;8.50;99.90;;;;;;5005567;28;20054;-69
2021/10/13 09:16:55;;;;;;;1.07;0.37;;;8.50;99.90;;;;;;5004728;28;20045;-70
2021/10/13 09:19:25;;;;;;;2.55;0.50;;;8.60;99.90;;;;;;4998571;28;20133;-69
2021/10/13 09:21:55;;;;;;;1.15;0.20;;;8.70;99.90;;;;;;4996100;28;20061;-67
2021/10/13 09:24:25;;;;;;;3.60;0.32;;;8.70;99.90;;;;;;5002196;28;20046;-70
2021/10/13 09:26:54;;;;;;;0.47;0.20;;;8.70;99.90;;;;;;4989905;28;20108;-77
2021/10/13 09:29:22;;;;;;;1.80;0.25;;;8.60;99.90;;;;;;4967771;28;20038;-66
2021/10/13 09:32:00;;;;;;;1.77;0.80;;;8.60;99.90;;;;;;4967879;28;20499;-67
2021/10/13 09:34:27;;;;;;;1.55;0.60;;;8.50;99.90;;;;;;4969111;28;20081;-68
2021/10/13 09:37:01;;;;;;;2.40;0.60;;;8.60;99.90;;;;;;4970301;28;20042;-72
2021/10/13 09:39:30;;;;;;;2.85;0.30;;;8.60;99.90;;;;;;4971856;28;20743;-68
2021/10/13 09:42:01;;;;;;;2.42;0.80;;;8.60;99.90;;;;;;4967978;28;20050;-68
2021/10/13 09:44:35;;;;;;;0.70;0.20;;;8.60;99.90;;;;;;4972008;28;20061;-69
2021/10/13 09:47:05;;;;;;;2.03;0.52;;;8.60;99.90;;;;;;4968347;28;20523;-72
2021/10/13 09:49:50;;;;;;;0.90;0.50;;;8.60;99.90;;;;;;4969886;28;20046;-69
2021/10/13 09:52:30;;;;;;;1.63;0.75;;;8.60;99.90;;;;;;4968063;28;20059;-69
2021/10/13 09:55:01;;;;;;;1.27;0.50;;;8.70;99.90;;;;;;4971224;28;20050;-72
2021/10/13 09:57:31;;;;;;;4.22;1.23;;;8.70;99.90;;;;;;4971729;28;20866;-67
2021/10/13 10:00:25;;;;;;;0.10;0.10;;;8.60;99.90;;;;;;4992031;28;20495;-69
2021/10/13 10:02:56;;;;;;;1.30;0.65;;;8.70;99.90;;;;;;4993870;28;20050;-69
2021/10/13 10:05:32;;;;;;;2.85;1.02;;;8.80;99.90;;;;;;5003013;28;20052;-67
2021/10/13 10:08:08;;;;;;;5.68;0.52;;;8.80;99.90;;;;;;5003124;28;20054;-68
2021/10/13 10:10:38;;;;;;;1.52;0.40;;;8.70;99.90;;;;;;5003841;28;20042;-72
2021/10/13 10:13:06;;;;;;;6.35;1.90;;;8.70;99.90;;;;;;5005316;28;20488;-67
2021/10/13 10:15:47;;;;;;;42.55;13.88;;;8.70;99.90;;;;;;4998625;28;20045;-69
2021/10/13 10:18:43;;;;;;;9.93;4.63;;;8.70;99.90;;;;;;4997404;28;20121;-70
2021/10/13 10:21:21;;;;;;;4.38;2.22;;;8.60;99.90;;;;;;4984173;28;20103;-71
2021/10/13 10:24:17;;;;;;;2.55;0.88;;;8.50;99.90;;;;;;5004554;28;20038;-70
2021/10/13 10:26:45;;;;;;;2.40;0.45;;;8.50;99.90;;;;;;5000876;28;20479;-69
2021/10/13 10:29:14;;;;;;;5.05;1.20;;;8.40;99.90;;;;;;5002956;28;20062;-68
2021/10/13 10:31:55;;;;;;;0.73;0.40;;;8.40;99.90;;;;;;5002217;28;20593;-69
2021/10/13 10:34:25;;;;;;;1.80;0.88;;;8.40;99.90;;;;;;5002065;28;20157;-69
2021/10/13 10:36:54;;;;;;;4.22;0.85;;;8.40;99.90;;;;;;5004664;28;20073;-68
2021/10/13 10:39:41;;;;;;;3.42;0.30;;;8.50;99.90;;;;;;5004164;28;20069;-69
2021/10/13 10:42:08;;;;;;;1.55;0.28;;;8.50;99.90;;;;;;4998441;28;20711;-69
2021/10/13 10:44:41;;;;;;;3.30;0.60;;;8.50;99.90;;;;;;5004975;28;20196;-69
2021/10/13 10:47:17;;;;;;;1.92;0.40;;;8.50;99.90;;;;;;5000445;28;20046;-68
2021/10/13 10:49:46;;;;;;;0.73;0.22;;;8.50;99.90;;;;;;4998361;28;20099;-71
2021/10/13 10:52:15;;;;;;;0.47;0.43;;;8.40;99.90;;;;;;5001270;28;20151;-72
2021/10/13 10:54:58;;;;;;;4.90;0.60;;;8.40;99.90;;;;;;4981491;28;20050;-67
2021/10/13 10:57:46;;;;;;;0.95;0.75;;;8.40;99.90;;;;;;4983275;28;20049;-69
2021/10/13 11:00:22;;;;;;;0.90;0.50;;;8.50;99.90;;;;;;4991949;28;20066;-68
2021/10/13 11:02:50;;;;;;;4.55;0.57;;;8.60;99.90;;;;;;5001248;28;20180;-69
2021/10/13 11:05:22;;;;;;;1.10;0.35;;;8.60;99.90;;;;;;4990702;28;20081;-68
2021/10/13 11:07:49;;;;;;;1.23;0.63;;;8.60;99.90;;;;;;4996373;28;20052;-67
2021/10/13 11:10:16;;;;;;;1.85;0.57;;;8.60;99.90;;;;;;4995008;28;20117;-69
2021/10/13 11:12:47;;;;;;;2.00;0.52;;;8.50;99.90;;;;;;5008560;28;20115;-67
2021/10/13 11:15:15;;;;;;;1.27;0.35;;;8.60;99.90;;;;;;5002784;28;20046;-71
2021/10/13 11:17:42;;;;;;;0.55;0.52;;;8.60;99.90;;;;;;5003482;28;20073;-68
2021/10/13 11:20:10;;;;;;;0.52;0.30;;;8.60;99.90;;;;;;5001993;28;20069;-71
2021/10/13 11:22:42;;;;;;;3.67;0.32;;;8.60;99.90;;;;;;5004918;28;20442;-69
2021/10/13 11:25:13;;;;;;;0.52;0.30;;;8.60;99.90;;;;;;4998812;28;20128;-69
2021/10/13 11:28:08;;;;;;;1.67;0.40;;;8.60;99.90;;;;;;4810011;28;10000685;-67
2021/10/13 11:30:44;;;;;;;0.75;0.15;;;8.60;99.90;;;;;;3964941;28;10001085;-68
2021/10/13 11:33:15;;;;;;;2.65;0.38;;;8.50;99.90;;;;;;5001001;28;20085;-72
2021/10/13 11:35:44;;;;;;;0.60;0.40;;;8.60;99.90;;;;;;5002200;28;20034;-67
2021/10/13 11:38:20;;;;;;;1.17;0.35;;;8.70;99.90;;;;;;5004562;28;20045;-68
2021/10/13 11:40:48;;;;;;;0.20;0.10;;;8.70;99.90;;;;;;5003677;28;20128;-67
2021/10/13 11:43:18;;;;;;;3.25;0.68;;;8.80;99.90;;;;;;5005602;28;20040;-67
2021/10/13 11:45:50;;;;;;;4.50;0.30;;;8.90;99.90;;;;;;5007298;28;20053;-67
2021/10/13 11:48:26;;;;;;;0.82;0.40;;;8.90;99.90;;;;;;5003539;28;20044;-66
2021/10/13 11:50:53;;;;;;;4.55;0.50;;;8.90;99.90;;;;;;5002924;28;20077;-67
2021/10/13 11:53:21;;;;;;;1.35;0.40;;;9.00;99.90;;;;;;4990370;28;20128;-68
2021/10/13 11:55:48;;;;;;;2.28;0.57;;;9.00;99.90;;;;;;5006238;28;20081;-69
2021/10/13 11:58:30;;;;;;;3.63;2.38;;;8.90;99.90;;;;;;5001577;28;20058;-66
2021/10/13 12:00:58;;;;;;;1.85;0.17;;;8.90;99.90;;;;;;4995816;28;20052;-69
2021/10/13 12:03:36;;;;;;;4.85;0.47;;;8.90;99.90;;;;;;5004689;28;20065;-66
2021/10/13 12:06:05;;;;;;;2.83;0.30;;;8.90;99.90;;;;;;5001873;28;20045;-67
2021/10/13 12:08:35;;;;;;;0.75;0.20;;;8.90;99.90;;;;;;4999034;28;20472;-69
2021/10/13 12:11:13;;;;;;;0.55;0.15;;;8.90;99.90;;;;;;5005403;28;20125;-69
2021/10/13 12:13:44;;;;;;;0.32;0.28;;;8.90;99.90;;;;;;5000851;28;20038;-69
2021/10/13 12:16:32;;;;;;;;;;;8.80;99.90;;;;;;5001518;28;20464;-68
2021/10/13 12:19:09;;;;;;;0.98;0.25;;;8.90;99.90;;;;;;4998987;28;19933;-68
2021/10/13 12:21:36;;;;;;;1.90;0.52;;;8.80;99.90;;;;;;5004565;28;20463;-70
2021/10/13 12:24:05;;;;;;;0.47;0.20;;;8.80;99.90;;;;;;4999494;28;20069;-67
2021/10/13 12:26:38;;;;;;;0.40;0.30;;;8.80;99.90;;;;;;5003733;28;20877;-67
2021/10/13 12:29:13;;;;;;;3.58;0.68;;;8.80;99.90;;;;;;5003747;28;20046;-66
2021/10/13 12:31:42;;;;;;;0.93;0.30;;;8.80;99.90;;;;;;5006485;28;20137;-68
2021/10/13 12:34:19;;;;;;;2.50;0.30;;;8.80;99.90;;;;;;4995035;28;20042;-68
2021/10/13 12:36:54;;;;;;;1.33;0.25;;;8.90;99.90;;;;;;5003950;28;20129;-71
2021/10/13 12:39:28;;;;;;;4.38;0.32;;;8.70;99.90;;;;;;5001093;28;20053;-69
2021/10/13 12:42:06;;;;;;;1.15;0.20;;;8.80;99.90;;;;;;4994350;28;20045;-69
2021/10/13 12:44:34;;;;;;;0.57;0.20;;;8.80;99.90;;;;;;5000915;28;20105;-66
2021/10/13 12:47:07;;;;;;;1.25;0.30;;;8.60;99.90;;;;;;5003478;28;20443;-69
2021/10/13 12:49:45;;;;;;;0.43;0.13;;;8.60;99.90;;;;;;4988219;28;20488;-66
2021/10/13 12:52:14;;;;;;;1.33;0.47;;;8.70;99.90;;;;;;4987874;28;20058;-67
2021/10/13 12:54:47;;;;;;;1.60;0.40;;;8.80;99.90;;;;;;4991707;28;20077;-69
2021/10/13 12:57:16;;;;;;;0.30;0.15;;;8.90;99.90;;;;;;4990044;28;20053;-67
2021/10/13 12:59:44;;;;;;;2.42;0.30;;;8.90;99.90;;;;;;4992921;28;20038;-74
2021/10/13 13:02:11;;;;;;;0.68;0.20;;;9.10;99.90;;;;;;5000222;28;20598;-69
2021/10/13 13:04:38;;;;;;;2.60;0.17;;;9.10;99.90;;;;;;4999849;28;20062;-72
2021/10/13 13:07:06;;;;;;;3.60;0.55;;;9.10;99.90;;;;;;4998377;28;20096;-68
2021/10/13 13:09:34;;;;;;;1.33;0.43;;;9.00;99.90;;;;;;4991909;28;20065;-73
2021/10/13 13:12:01;;;;;;;2.38;1.05;;;8.90;99.90;;;;;;4988283;28;20124;-72
2021/10/13 13:14:28;;;;;;;4.25;0.80;;;8.90;99.90;;;;;;4998289;28;20639;-68